Time;durP1;ratioP1;P1;durP2;ratioP2;P2;SDS_P1;SDS_P2;PMS_P1;PMS_P2;Temp;Humidity;BMP_temperature;BMP_pressure;BME280_temperature;BME280_humidity;BME280_pressure;Samples;Min_cycle;Max_cycle;Signal;HPM_P1;HPM_P2
2023/01/12 00:01:42;;;;;;;5.15;1.08;;;;;;;-140.72;100.00;53186.34;5116366;27;20028;-67
2023/01/12 00:04:10;;;;;;;9.68;2.63;;;;;;;-140.72;100.00;53153.88;5121273;27;20116;-66
2023/01/12 00:06:44;;;;;;;15.25;2.33;;;;;;;-140.72;100.00;53151.84;5119564;27;20340;-67
2023/01/12 00:09:22;;;;;;;4.47;1.70;;;;;;;-140.72;100.00;53119.38;5114716;27;20103;-67
2023/01/12 00:11:51;;;;;;;12.93;2.00;;;;;;;-140.72;100.00;53194.47;5116745;27;20038;-69
2023/01/12 00:14:16;;;;;;;10.80;1.63;;;;;;;-140.72;100.00;53137.66;5117760;27;20122;-67
2023/01/12 00:16:42;;;;;;;7.97;3.03;;;;;;;-140.72;100.00;53135.63;5121874;27;20102;-67
2023/01/12 00:19:10;;;;;;;6.68;1.92;;;;;;;-140.72;100.00;53162.00;5117433;27;20049;-67
2023/01/12 00:24:35;;;;;;;13.70;2.00;;;;;;;-140.72;100.00;53168.09;5123393;27;20050;-68
2023/01/12 00:27:03;;;;;;;12.55;2.60;;;;;;;-140.72;100.00;53145.75;5112788;27;20016;-66
2023/01/12 00:29:28;;;;;;;16.63;3.63;;;;;;;-140.72;100.00;53194.47;5119192;27;20435;-67
2023/01/12 00:31:56;;;;;;;12.52;2.35;;;;;;;-140.72;100.00;53149.81;5121625;27;20035;-66
2023/01/12 00:34:22;;;;;;;14.23;2.88;;;;;;;-140.72;100.00;53133.59;5094283;27;20036;-67
2023/01/12 00:36:48;;;;;;;8.13;2.47;;;;;;;-140.72;100.00;53151.84;5088369;28;20028;-67
2023/01/12 00:39:14;;;;;;;10.63;2.45;;;;;;;-140.72;100.00;53133.59;5095128;28;20529;-65
2023/01/12 00:47:10;;;;;;;12.88;2.28;;;;;;;-140.72;100.00;53180.25;5093297;28;20038;-67
2023/01/12 00:49:39;;;;;;;15.10;3.00;;;;;;;-140.72;100.00;53164.03;5103114;28;20324;-67
2023/01/12 00:52:06;;;;;;;23.00;3.45;;;;;;;-140.72;100.00;53188.38;5098701;28;20051;-67
2023/01/12 00:54:33;;;;;;;25.73;3.80;;;;;;;-140.72;100.00;53174.19;5103477;28;20076;-67
2023/01/12 00:56:59;;;;;;;19.38;3.00;;;;;;;-140.72;100.00;53129.53;5100759;28;20453;-67
2023/01/12 00:59:24;;;;;;;17.38;4.10;;;;;;;-140.72;100.00;53174.19;5098895;28;20413;-68
2023/01/12 01:01:50;;;;;;;18.30;3.40;;;;;;;-140.72;100.00;53166.06;5101510;28;20059;-66
2023/01/12 01:04:16;;;;;;;22.75;4.15;;;;;;;-140.72;100.00;53162.00;5095664;28;20028;-66
2023/01/12 01:06:41;;;;;;;9.25;2.80;;;;;;;-140.72;100.00;53198.53;5095328;28;20059;-67
2023/01/12 01:09:07;;;;;;;21.85;2.60;;;;;;;-140.72;100.00;53137.66;5101183;28;20028;-66
2023/01/12 01:11:33;;;;;;;22.13;3.72;;;;;;;-140.72;100.00;53157.94;5098947;28;20069;-66
2023/01/12 01:13:58;;;;;;;15.45;4.15;;;;;;;-140.72;100.00;53145.75;5100105;28;20404;-65
2023/01/12 01:16:24;;;;;;;22.75;3.70;;;;;;;-140.72;100.00;53145.75;5105727;28;20077;-65
2023/01/12 01:18:50;;;;;;;17.45;2.70;;;;;;;-140.72;100.00;53157.94;5101340;28;20074;-66
2023/01/12 01:21:15;;;;;;;10.05;2.72;;;;;;;-140.72;100.00;53153.88;5096624;28;20019;-66
2023/01/12 01:23:41;;;;;;;15.68;2.85;;;;;;;-140.72;100.00;53182.28;5096391;28;20028;-66
2023/01/12 01:26:13;;;;;;;10.75;2.67;;;;;;;-140.72;100.00;53143.72;5095806;28;20024;-68
2023/01/12 01:28:39;;;;;;;12.30;2.97;;;;;;;-140.72;100.00;53141.69;5088247;28;20043;-67
2023/01/12 01:31:08;;;;;;;14.13;2.85;;;;;;;-140.72;100.00;53115.31;5100700;28;20028;-66
2023/01/12 01:33:33;;;;;;;8.27;2.67;;;;;;;-140.72;100.00;53170.13;5113065;27;20030;-66
2023/01/12 01:35:59;;;;;;;8.95;2.65;;;;;;;-140.72;100.00;53147.78;5118431;27;20092;-67
2023/01/12 01:38:25;;;;;;;6.60;1.73;;;;;;;-140.72;100.00;53174.19;5118059;27;20365;-66
2023/01/12 01:40:50;;;;;;;17.30;3.20;;;;;;;-140.72;100.00;53157.94;5120488;27;20023;-64
2023/01/12 01:43:18;;;;;;;8.80;2.10;;;;;;;-140.72;100.00;53198.53;5120469;27;20374;-66
2023/01/12 01:46:10;;;;;;;4.40;1.90;;;;;;;-140.72;100.00;53182.28;5114985;27;20467;-65
2023/01/12 01:48:47;;;;;;;5.20;2.38;;;;;;;-140.72;100.00;53139.69;5115710;27;20032;-65
2023/01/12 01:51:15;;;;;;;8.50;1.80;;;;;;;-140.72;100.00;53174.19;5116929;27;20404;-66
2023/01/12 01:53:44;;;;;;;4.97;1.70;;;;;;;-140.72;100.00;53137.66;5118227;27;20038;-66
2023/01/12 01:56:24;;;;;;;7.40;2.22;;;;;;;-140.72;100.00;53168.09;5119992;27;20034;-65
2023/01/12 01:59:00;;;;;;;3.33;1.45;;;;;;;-140.72;100.00;53133.59;5121866;27;20030;-66
2023/01/12 02:01:26;;;;;;;3.70;1.05;;;;;;;-140.72;100.00;53157.94;5116650;27;20035;-66
2023/01/12 02:03:54;;;;;;;11.07;1.40;;;;;;;-140.72;100.00;53159.97;5122340;27;20021;-65
2023/01/12 02:06:24;;;;;;;3.28;1.15;;;;;;;-140.72;100.00;53172.16;5116675;27;20031;-66
2023/01/12 02:09:20;;;;;;;4.30;0.85;;;;;;;-140.72;100.00;53172.16;5114077;27;20027;-66
2023/01/12 02:17:38;;;;;;;2.85;1.05;;;;;;;-140.72;100.00;53172.16;5121005;27;20092;-66
2023/01/12 02:20:50;;;;;;;4.10;0.90;;;;;;;-140.72;100.00;53192.44;5115676;28;20042;-66
2023/01/12 02:23:21;;;;;;;8.32;1.20;;;;;;;-140.72;100.00;53145.75;5073316;27;20092;-66
2023/01/12 02:26:02;;;;;;;6.78;1.23;;;;;;;-140.72;100.00;53162.00;5117922;28;20055;-66
2023/01/12 02:29:23;;;;;;;4.13;1.27;;;;;;;-140.72;100.00;53182.28;5128935;28;20560;-66
2023/01/12 02:31:48;;;;;;;3.80;1.30;;;;;;;-140.72;100.00;53162.00;5081318;28;20044;-66
2023/01/12 02:34:20;;;;;;;4.88;1.77;;;;;;;-140.72;100.00;53168.09;5124476;28;20035;-64
2023/01/12 02:36:55;;;;;;;10.30;2.13;;;;;;;-140.72;100.00;53176.22;5119398;28;20027;-66
2023/01/12 02:40:09;;;;;;;9.95;1.77;;;;;;;-140.72;100.00;53166.06;5110823;28;20500;-66
2023/01/12 02:42:54;;;;;;;5.55;1.00;;;;;;;-140.72;100.00;53149.81;5123225;28;20034;-67
2023/01/12 02:45:50;;;;;;;8.48;1.85;;;;;;;-140.72;100.00;53133.59;5117401;28;20042;-67
2023/01/12 02:48:27;;;;;;;11.38;1.60;;;;;;;-140.72;100.00;53155.91;5117706;28;20027;-66
2023/01/12 02:51:01;;;;;;;10.18;1.52;;;;;;;-140.72;100.00;53164.03;5117344;28;20054;-67
2023/01/12 02:53:41;;;;;;;8.32;1.15;;;;;;;-140.72;100.00;53119.38;5116582;28;20032;-67
2023/01/12 02:56:10;;;;;;;8.07;1.02;;;;;;;-140.72;100.00;53182.28;5119657;28;20061;-66
2023/01/12 02:58:42;;;;;;;5.88;1.45;;;;;;;-140.72;100.00;53178.22;5119247;28;20026;-66
2023/01/12 03:01:10;;;;;;;7.53;1.75;;;;;;;-140.72;100.00;53190.41;5118750;28;20469;-68
2023/01/12 03:03:38;;;;;;;12.15;2.03;;;;;;;-140.72;100.00;53153.88;5117263;28;20037;-65
2023/01/12 03:06:05;;;;;;;3.88;1.73;;;;;;;-140.72;100.00;53147.78;5114985;28;20058;-66
2023/01/12 03:08:32;;;;;;;8.05;1.85;;;;;;;-140.72;100.00;53166.06;5116237;28;20023;-68
2023/01/12 03:11:11;;;;;;;7.68;1.20;;;;;;;-140.72;100.00;53149.81;5119150;28;20077;-68
2023/01/12 03:13:49;;;;;;;3.77;1.10;;;;;;;-140.72;100.00;53172.16;5120407;28;20030;-66
2023/01/12 03:16:19;;;;;;;6.10;1.20;;;;;;;-140.72;100.00;53143.72;5116857;28;20341;-67
2023/01/12 03:18:49;;;;;;;5.05;1.80;;;;;;;-140.72;100.00;53180.25;5117463;28;20042;-66
2023/01/12 03:21:25;;;;;;;3.80;1.63;;;;;;;-140.72;100.00;53164.03;5119452;28;20031;-66
2023/01/12 03:24:11;;;;;;;5.10;2.13;;;;;;;-140.72;100.00;53147.78;5115436;28;20092;-67
2023/01/12 03:26:43;;;;;;;6.88;1.27;;;;;;;-140.72;100.00;53192.44;5116425;28;20368;-67
2023/01/12 03:29:26;;;;;;;6.43;1.92;;;;;;;-140.72;100.00;53155.91;5115275;28;20068;-66
2023/01/12 03:31:52;;;;;;;8.02;1.90;;;;;;;-140.72;100.00;53188.38;5117645;28;20061;-66
2023/01/12 03:34:19;;;;;;;2.40;1.17;;;;;;;-140.72;100.00;53200.56;5113740;27;20063;-68
2023/01/12 03:37:02;;;;;;;2.08;1.02;;;;;;;-140.72;100.00;53194.47;5117935;27;20081;-65
2023/01/12 03:39:28;;;;;;;5.32;1.15;;;;;;;-140.72;100.00;53174.19;5118094;27;20522;-67
2023/01/12 03:42:01;;;;;;;6.20;1.65;;;;;;;-140.72;100.00;53172.16;5123747;27;20184;-68
2023/01/12 03:44:37;;;;;;;5.50;1.48;;;;;;;-140.72;100.00;53159.97;5118673;27;20028;-66
2023/01/12 03:47:12;;;;;;;2.00;1.40;;;;;;;-140.72;100.00;53168.09;5128890;27;20546;-65
2023/01/12 03:50:00;;;;;;;2.65;0.93;;;;;;;-140.72;100.00;53186.34;5117817;27;20106;-66
2023/01/12 03:52:28;;;;;;;1.83;0.90;;;;;;;-140.72;100.00;53206.66;5125822;27;20047;-65
2023/01/12 03:54:57;;;;;;;3.35;0.90;;;;;;;-140.72;100.00;53194.47;5121792;27;20521;-65
2023/01/12 03:57:26;;;;;;;1.83;1.03;;;;;;;-140.72;100.00;53170.13;5124631;27;20019;-65
2023/01/12 03:59:53;;;;;;;1.23;0.88;;;;;;;-140.72;100.00;53170.13;5122494;27;20039;-65
2023/01/12 04:02:20;;;;;;;6.47;1.00;;;;;;;-140.72;100.00;53210.72;5125353;27;20058;-64
2023/01/12 04:04:46;;;;;;;6.22;1.48;;;;;;;-140.72;100.00;53188.38;5118747;27;20027;-67
2023/01/12 04:07:11;;;;;;;4.22;1.08;;;;;;;-140.72;100.00;53196.50;5124600;27;20080;-64
2023/01/12 04:09:36;;;;;;;3.97;0.85;;;;;;;-140.72;100.00;53184.31;5121536;27;20094;-65
2023/01/12 04:12:11;;;;;;;6.50;1.45;;;;;;;-140.72;100.00;53198.53;5123197;27;20022;-64
2023/01/12 04:14:37;;;;;;;7.65;1.30;;;;;;;-140.72;100.00;53178.22;5126715;27;20104;-64
2023/01/12 04:17:03;;;;;;;8.40;1.30;;;;;;;-140.72;100.00;53210.72;5124137;27;20030;-65
2023/01/12 04:19:28;;;;;;;5.57;2.10;;;;;;;-140.72;100.00;53174.19;5124181;27;20026;-64
2023/01/12 04:24:38;;;;;;;1.80;0.90;;;;;;;-140.72;100.00;53208.69;5121407;27;20062;-65
2023/01/12 04:27:03;;;;;;;0.85;0.70;;;;;;;-140.72;100.00;53184.31;5125133;27;20031;-64
2023/01/12 04:29:29;;;;;;;2.50;0.90;;;;;;;-140.72;100.00;53162.00;5123684;27;20034;-63
2023/01/12 04:31:54;;;;;;;4.07;1.15;;;;;;;-140.72;100.00;53226.94;5125876;27;20061;-65
2023/01/12 04:34:19;;;;;;;4.88;0.85;;;;;;;-140.72;100.00;53184.31;5122955;27;20035;-65
2023/01/12 04:36:45;;;;;;;2.85;1.02;;;;;;;-140.72;100.00;53178.22;5116851;27;20038;-65
2023/01/12 04:39:10;;;;;;;7.35;2.35;;;;;;;-140.72;100.00;53151.84;5118854;27;20375;-66
2023/01/12 04:41:35;;;;;;;1.77;1.10;;;;;;;-140.72;100.00;53137.66;5122817;27;20023;-64
2023/01/12 04:44:01;;;;;;;1.75;0.93;;;;;;;-140.72;100.00;53184.31;5122942;27;20030;-66
2023/01/12 04:46:26;;;;;;;3.55;1.40;;;;;;;-140.72;100.00;53190.41;5121836;27;20024;-65
2023/01/12 04:48:52;;;;;;;5.45;1.10;;;;;;;-140.72;100.00;53174.19;5118732;27;20027;-65
2023/01/12 04:51:17;;;;;;;2.95;1.30;;;;;;;-140.72;100.00;53202.59;5125758;27;20520;-66
2023/01/12 04:53:43;;;;;;;1.63;0.63;;;;;;;-140.72;100.00;53145.75;5116548;27;20034;-66
2023/01/12 04:56:08;;;;;;;4.35;0.93;;;;;;;-140.72;100.00;53178.22;5116600;27;20419;-65
2023/01/12 04:58:34;;;;;;;0.73;0.30;;;;;;;-140.72;100.00;53174.19;5112803;27;20030;-65
2023/01/12 05:01:11;;;;;;;1.48;0.63;;;;;;;-140.72;100.00;53121.41;5121891;27;20031;-66
2023/01/12 05:03:37;;;;;;;6.10;1.38;;;;;;;-140.72;100.00;53157.94;5126617;27;20019;-66
2023/01/12 05:06:03;;;;;;;5.68;1.08;;;;;;;-140.72;100.00;53184.31;5115607;27;20007;-65
2023/01/12 05:11:13;;;;;;;5.68;0.77;;;;;;;-140.72;100.00;53162.00;5124354;27;20046;-65
2023/01/12 05:13:38;;;;;;;1.42;0.73;;;;;;;-140.72;100.00;53178.22;5116666;27;20027;-66
2023/01/12 05:16:16;;;;;;;4.20;0.63;;;;;;;-140.72;100.00;53131.56;5119446;27;20123;-67
2023/01/12 05:18:44;;;;;;;2.53;0.77;;;;;;;-140.72;100.00;53141.69;5112099;27;20442;-66
2023/01/12 05:21:10;;;;;;;5.15;0.85;;;;;;;-140.72;100.00;53172.16;5122005;27;20071;-66
2023/01/12 05:23:36;;;;;;;5.05;0.55;;;;;;;-140.72;100.00;53164.03;5115866;27;20054;-65
2023/01/12 05:26:03;;;;;;;1.95;0.60;;;;;;;-140.72;100.00;53214.78;5123022;27;20368;-66
2023/01/12 05:28:29;;;;;;;0.10;0.10;;;;;;;-140.72;100.00;53149.81;5121365;27;20117;-66
2023/01/12 05:31:01;;;;;;;3.50;0.30;;;;;;;-140.72;100.00;53206.66;5118577;27;20102;-66
2023/01/12 05:33:26;;;;;;;2.25;0.45;;;;;;;-140.72;100.00;53159.97;5125066;27;20411;-67
2023/01/12 05:35:52;;;;;;;1.10;0.63;;;;;;;-140.72;100.00;53176.22;5121420;27;20246;-66
2023/01/12 05:38:17;;;;;;;0.47;0.32;;;;;;;-140.72;100.00;53166.06;5123021;27;20102;-66
2023/01/12 05:40:43;;;;;;;2.47;0.47;;;;;;;-140.72;100.00;53141.69;5124009;27;20023;-66
2023/01/12 05:45:56;;;;;;;0.88;0.63;;;;;;;-140.72;100.00;53139.69;5121552;27;20041;-67
2023/01/12 05:48:21;;;;;;;0.70;0.43;;;;;;;-140.72;100.00;53186.34;5113859;27;20459;-66
2023/01/12 05:50:46;;;;;;;0.30;0.20;;;;;;;-140.72;100.00;53172.16;5111316;27;20361;-66
2023/01/12 05:53:12;;;;;;;1.75;0.40;;;;;;;-140.72;100.00;53147.78;5114384;27;20137;-65
2023/01/12 05:55:37;;;;;;;0.45;0.32;;;;;;;-140.72;100.00;53149.81;5119512;27;20035;-67
2023/01/12 05:58:06;;;;;;;0.30;0.30;;;;;;;-140.72;100.00;53194.47;5125831;27;20023;-67
2023/01/12 06:00:31;;;;;;;3.30;1.05;;;;;;;-140.72;100.00;53157.94;5119602;27;20127;-66
2023/01/12 06:02:56;;;;;;;3.70;0.50;;;;;;;-140.72;100.00;53115.31;5122664;27;20122;-66
2023/01/12 06:05:22;;;;;;;1.25;0.22;;;;;;;-140.72;100.00;53139.69;5124479;27;20366;-66
2023/01/12 06:07:47;;;;;;;5.28;1.25;;;;;;;-140.72;100.00;53137.66;5117156;27;20889;-67
2023/01/12 06:10:13;;;;;;;2.65;0.93;;;;;;;-140.72;100.00;53147.78;5121420;27;20081;-67
2023/01/12 06:15:22;;;;;;;7.25;0.88;;;;;;;-140.72;100.00;53174.19;5117209;27;20046;-67
2023/01/12 06:17:47;;;;;;;3.47;0.40;;;;;;;-140.72;100.00;53170.13;5117648;27;20023;-67
2023/01/12 06:20:15;;;;;;;1.52;0.52;;;;;;;-140.72;100.00;53145.75;5117576;27;20020;-68
2023/01/12 06:22:44;;;;;;;1.50;0.80;;;;;;;-140.72;100.00;53147.78;5114723;28;20027;-67
2023/01/12 06:25:10;;;;;;;2.08;0.65;;;;;;;-140.72;100.00;53159.97;5117128;28;20034;-67
2023/01/12 06:27:37;;;;;;;8.80;1.27;;;;;;;-140.72;100.00;53147.78;5113677;28;20066;-67
2023/01/12 06:30:07;;;;;;;3.28;1.02;;;;;;;-140.72;100.00;53182.28;5113034;28;20023;-67
2023/01/12 06:32:33;;;;;;;4.90;1.33;;;;;;;-140.72;100.00;53090.97;5119911;28;20367;-67
2023/01/12 06:34:59;;;;;;;4.57;1.65;;;;;;;-140.72;100.00;53145.75;5101368;28;20015;-67
2023/01/12 06:37:27;;;;;;;2.22;0.65;;;;;;;-140.72;100.00;53133.59;5100564;28;20517;-67
2023/01/12 06:39:52;;;;;;;6.13;0.93;;;;;;;-140.72;100.00;53105.19;5090605;28;20108;-67
2023/01/12 06:42:30;;;;;;;5.25;1.25;;;;;;;-140.72;100.00;53162.00;5096543;28;20117;-68
2023/01/12 06:45:02;;;;;;;10.80;1.65;;;;;;;-140.72;100.00;53101.13;5084588;28;20083;-66
2023/01/12 06:47:30;;;;;;;4.55;1.42;;;;;;;-140.72;100.00;53121.41;5099618;28;20032;-66
2023/01/12 06:49:56;;;;;;;9.00;2.17;;;;;;;-140.72;100.00;53129.53;5104161;28;20020;-67
2023/01/12 06:52:24;;;;;;;5.13;1.38;;;;;;;-140.72;100.00;53147.78;5106395;28;20034;-66
2023/01/12 06:54:50;;;;;;;6.32;1.48;;;;;;;-140.72;100.00;53107.19;5098398;28;20490;-68
2023/01/12 06:57:16;;;;;;;6.97;1.65;;;;;;;-140.72;100.00;53147.78;5107026;28;20183;-67
2023/01/12 06:59:41;;;;;;;6.88;2.05;;;;;;;-140.72;100.00;53153.88;5095522;28;20452;-65
2023/01/12 07:02:12;;;;;;;11.63;1.85;;;;;;;-140.72;100.00;53101.13;5090381;28;20020;-68
2023/01/12 07:04:38;;;;;;;3.20;0.93;;;;;;;-140.72;100.00;53123.44;5096024;28;20463;-68
2023/01/12 07:07:04;;;;;;;10.63;1.38;;;;;;;-140.72;100.00;53111.25;5094921;28;20035;-68
2023/01/12 07:09:29;;;;;;;1.45;0.80;;;;;;;-140.72;100.00;53125.47;5094744;28;20019;-68
2023/01/12 07:11:58;;;;;;;8.80;1.38;;;;;;;-140.72;100.00;53153.88;5108596;28;20557;-66
2023/01/12 07:14:26;;;;;;;11.90;2.45;;;;;;;-140.72;100.00;53131.56;5105183;28;20058;-66
2023/01/12 07:16:51;;;;;;;5.20;1.75;;;;;;;-140.72;100.00;53139.69;5103125;28;20035;-66
2023/01/12 07:19:17;;;;;;;8.93;1.20;;;;;;;-140.72;100.00;53137.66;5100795;28;20428;-67
2023/01/12 07:21:45;;;;;;;6.22;1.25;;;;;;;-140.72;100.00;53121.41;5108500;28;20059;-66
2023/01/12 07:24:10;;;;;;;13.57;1.80;;;;;;;-140.72;100.00;53162.00;5105781;28;20047;-67
2023/01/12 07:26:36;;;;;;;11.23;2.53;;;;;;;-140.72;100.00;53086.91;5094412;28;20444;-67
2023/01/12 07:29:02;;;;;;;7.88;1.75;;;;;;;-140.72;100.00;53143.72;5106846;28;20499;-66
2023/01/12 07:31:27;;;;;;;10.55;1.98;;;;;;;-140.72;100.00;53141.69;5097524;28;20380;-67
2023/01/12 07:33:53;;;;;;;4.72;1.65;;;;;;;-140.72;100.00;53125.47;5114406;27;20039;-66
2023/01/12 07:36:20;;;;;;;11.15;1.70;;;;;;;-140.72;100.00;53125.47;5125109;27;20470;-66
2023/01/12 07:38:45;;;;;;;3.80;1.33;;;;;;;-140.72;100.00;53139.69;5126177;27;20115;-66
2023/01/12 07:42:21;;;;;;;1.30;0.50;;;;;;;-140.72;100.00;53170.13;5113128;28;20507;-66
2023/01/12 07:43:56;;;;;;;7.18;1.80;;;;;;;-140.72;100.00;53088.94;5119092;27;20490;-66
2023/01/12 07:46:22;;;;;;;5.22;1.55;;;;;;;-140.72;100.00;53115.31;5126668;27;20020;-67
2023/01/12 07:48:47;;;;;;;3.92;1.35;;;;;;;-140.72;100.00;53139.69;5125307;27;20125;-66
2023/01/12 07:51:13;;;;;;;8.38;1.45;;;;;;;-140.72;100.00;53139.69;5118752;27;20064;-66
2023/01/12 07:53:38;;;;;;;11.55;1.65;;;;;;;-140.72;100.00;53113.28;5119300;27;20029;-66
2023/01/12 07:56:04;;;;;;;6.90;2.13;;;;;;;-140.72;100.00;53111.25;5125048;27;20028;-67
2023/01/12 07:58:30;;;;;;;5.07;1.67;;;;;;;-140.72;100.00;53064.59;5112986;27;20026;-67
2023/01/12 08:00:59;;;;;;;10.50;1.80;;;;;;;-140.72;100.00;53119.38;5112841;27;20425;-66
2023/01/12 08:03:25;;;;;;;10.45;2.78;;;;;;;-140.72;100.00;53093.00;5122283;27;20026;-66
2023/01/12 08:05:50;;;;;;;16.98;2.05;;;;;;;-140.72;100.00;53133.59;5114068;27;20016;-67
2023/01/12 08:08:16;;;;;;;5.03;1.27;;;;;;;-140.72;100.00;53107.19;5115242;27;20024;-66
2023/01/12 08:10:42;;;;;;;5.10;1.58;;;;;;;-140.72;100.00;53129.53;5114025;27;20031;-67
2023/01/12 08:13:08;;;;;;;12.13;1.63;;;;;;;-140.72;100.00;53129.53;5120748;27;20118;-67
2023/01/12 08:15:40;;;;;;;8.60;1.17;;;;;;;-140.72;100.00;53109.22;5115150;27;20029;-67
2023/01/12 08:18:25;;;;;;;12.70;2.47;;;;;;;-140.72;100.00;53109.22;5121762;27;20031;-67
2023/01/12 08:20:52;;;;;;;5.60;2.03;;;;;;;-140.72;100.00;53086.91;5130148;27;20068;-67
2023/01/12 08:23:31;;;;;;;8.95;2.72;;;;;;;-140.72;100.00;53044.28;5118367;27;20047;-67
2023/01/12 08:26:00;;;;;;;10.43;1.02;;;;;;;-140.72;100.00;53072.69;5120311;27;20023;-67
2023/01/12 08:28:36;;;;;;;11.80;2.57;;;;;;;-140.72;100.00;53046.31;5117262;27;20023;-68
2023/01/12 08:31:02;;;;;;;6.32;2.72;;;;;;;-140.72;100.00;53111.25;5122902;27;20020;-67
2023/01/12 08:33:30;;;;;;;10.00;3.00;;;;;;;-140.72;100.00;53103.16;5119436;27;20084;-67
2023/01/12 08:35:55;;;;;;;8.75;1.88;;;;;;;-140.72;100.00;53125.47;5121390;27;20019;-68
2023/01/12 08:38:21;;;;;;;8.18;1.88;;;;;;;-140.72;100.00;53147.78;5113953;27;20455;-67
2023/01/12 08:46:14;;;;;;;13.45;1.83;;;;;;;-140.72;100.00;53133.59;5116721;27;20096;-68
2023/01/12 08:48:39;;;;;;;9.48;2.20;;;;;;;-140.72;100.00;53121.41;5120828;27;20043;-68
2023/01/12 08:51:06;;;;;;;10.85;2.00;;;;;;;-140.72;100.00;53153.88;5130172;27;20050;-68
2023/01/12 08:53:33;;;;;;;13.07;1.95;;;;;;;-140.72;100.00;53064.59;5119821;27;20028;-68
2023/01/12 08:55:58;;;;;;;9.73;2.30;;;;;;;-140.72;100.00;53113.28;5121395;27;20027;-69
2023/01/12 08:58:24;;;;;;;21.70;4.22;;;;;;;-140.72;100.00;53117.34;5122721;27;20450;-68
2023/01/12 09:00:52;;;;;;;9.40;2.58;;;;;;;-140.72;100.00;53076.75;5116790;27;20047;-68
2023/01/12 09:03:18;;;;;;;9.05;2.72;;;;;;;-140.72;100.00;53107.19;5120161;27;20474;-69
2023/01/12 09:05:46;;;;;;;12.35;1.85;;;;;;;-140.72;100.00;53068.66;5125316;27;20039;-68
2023/01/12 09:08:12;;;;;;;16.50;2.10;;;;;;;-140.72;100.00;53099.09;5114520;27;20459;-69
2023/01/12 09:10:37;;;;;;;9.13;2.35;;;;;;;-140.72;100.00;53064.59;5115766;27;20139;-68
2023/01/12 09:13:02;;;;;;;12.23;2.25;;;;;;;-140.72;100.00;53164.03;5120673;27;20570;-69
2023/01/12 09:15:28;;;;;;;8.50;2.08;;;;;;;-140.72;100.00;53117.34;5119349;27;20025;-69
2023/01/12 09:17:54;;;;;;;11.63;2.60;;;;;;;-140.72;100.00;53129.53;5119202;27;20023;-67
2023/01/12 09:20:20;;;;;;;10.80;5.30;;;;;;;-140.72;100.00;53103.16;5121106;27;20458;-68
2023/01/12 09:22:45;;;;;;;10.55;2.35;;;;;;;-140.72;100.00;53084.88;5119208;27;20033;-69
2023/01/12 09:25:10;;;;;;;15.95;4.05;;;;;;;-140.72;100.00;53111.25;5121531;27;20146;-69
2023/01/12 09:27:36;;;;;;;10.70;2.72;;;;;;;-140.72;100.00;53095.03;5114740;27;20026;-68
2023/01/12 09:30:02;;;;;;;10.73;2.30;;;;;;;-140.72;100.00;53093.00;5119645;27;20494;-68
2023/01/12 09:32:28;;;;;;;8.70;2.95;;;;;;;-140.72;100.00;53068.66;5111308;27;20031;-68
2023/01/12 09:34:53;;;;;;;8.95;2.53;;;;;;;-140.72;100.00;53093.00;5113535;27;20463;-70
2023/01/12 09:37:21;;;;;;;10.95;2.22;;;;;;;-140.72;100.00;53097.06;5113318;27;20034;-68
2023/01/12 09:39:47;;;;;;;4.53;1.25;;;;;;;-140.72;100.00;53153.88;5119016;27;20027;-68
2023/01/12 09:47:56;;;;;;;8.70;1.67;;;;;;;-140.72;100.00;53137.66;5122470;27;20565;-69
2023/01/12 09:50:25;;;;;;;5.65;2.10;;;;;;;-140.72;100.00;53115.31;5122845;27;20155;-68
2023/01/12 09:52:56;;;;;;;16.75;2.33;;;;;;;-140.72;100.00;53082.84;5129735;27;20053;-68
2023/01/12 09:55:26;;;;;;;8.40;1.88;;;;;;;-140.72;100.00;53105.19;5115182;27;20097;-68
2023/01/12 09:58:00;;;;;;;;;;;;;;;-140.72;100.00;53068.66;5114725;27;20028;-67
2023/01/12 10:00:27;;;;;;;7.90;1.88;;;;;;;-140.72;100.00;53076.75;5113143;27;19910;-67
2023/01/12 10:03:14;;;;;;;9.10;2.83;;;;;;;-140.72;100.00;53143.72;5110065;28;20049;-68
2023/01/12 10:05:53;;;;;;;7.80;1.98;;;;;;;-140.72;100.00;53111.25;5121549;27;20072;-67
2023/01/12 10:08:49;;;;;;;8.13;1.70;;;;;;;-140.72;100.00;53093.00;5122673;27;20023;-68
2023/01/12 10:11:39;;;;;;;5.78;1.20;;;;;;;-140.72;100.00;53123.44;5115753;27;20027;-68
2023/01/12 10:14:23;;;;;;;13.50;2.22;;;;;;;-140.72;100.00;53090.97;5117447;27;20019;-68
2023/01/12 10:17:26;;;;;;;6.28;2.53;;;;;;;-140.72;100.00;53107.19;5116218;27;20375;-69
2023/01/12 10:20:08;;;;;;;8.63;1.65;;;;;;;-140.72;100.00;53127.50;5115997;27;20073;-68
2023/01/12 10:22:43;;;;;;;10.20;1.65;;;;;;;-140.72;100.00;53086.91;5113577;28;20080;-68
2023/01/12 10:25:14;;;;;;;8.63;1.48;;;;;;;-140.72;100.00;53133.59;5122871;28;20036;-68
2023/01/12 10:27:43;;;;;;;3.70;1.40;;;;;;;-140.72;100.00;53133.59;5112591;28;20031;-68
2023/01/12 10:30:27;;;;;;;11.40;1.80;;;;;;;-140.72;100.00;53113.28;5115289;28;20128;-68
2023/01/12 10:32:53;;;;;;;8.63;1.63;;;;;;;-140.72;100.00;53093.00;5117166;28;20346;-68
2023/01/12 10:35:21;;;;;;;8.05;1.48;;;;;;;-140.72;100.00;53095.03;5121056;28;20528;-68
2023/01/12 10:37:52;;;;;;;4.53;1.17;;;;;;;-140.72;100.00;53105.19;5120963;28;20019;-68
2023/01/12 10:40:22;;;;;;;17.08;2.72;;;;;;;-140.72;100.00;53113.28;5122018;28;20023;-68
2023/01/12 10:45:35;;;;;;;11.32;2.83;;;;;;;-140.72;100.00;53135.63;5119539;27;19917;-68
2023/01/12 10:48:15;;;;;;;9.40;2.97;;;;;;;-140.72;100.00;53072.69;5127235;27;20371;-67
2023/01/12 10:50:41;;;;;;;8.90;2.47;;;;;;;-140.72;100.00;53127.50;5127178;27;20019;-68
2023/01/12 10:53:14;;;;;;;11.02;1.92;;;;;;;-140.72;100.00;53105.19;5121450;27;20030;-68
2023/01/12 10:55:41;;;;;;;12.45;2.08;;;;;;;-140.72;100.00;53101.13;5123982;27;20031;-68
2023/01/12 10:58:31;;;;;;;14.48;3.15;;;;;;;-140.72;100.00;53109.22;5127720;27;20110;-69
2023/01/12 11:00:56;;;;;;;10.38;2.45;;;;;;;-140.72;100.00;53125.47;5127367;27;20459;-68
2023/01/12 11:03:42;;;;;;;11.73;2.45;;;;;;;-140.72;100.00;53101.13;5128248;27;20114;-68
2023/01/12 11:06:33;;;;;;;7.63;1.23;;;;;;;-140.72;100.00;53168.09;5120934;27;20127;-68
2023/01/12 11:09:17;;;;;;;12.07;1.52;;;;;;;-140.72;100.00;53113.28;5115435;27;20023;-68
2023/01/12 11:11:42;;;;;;;14.05;2.38;;;;;;;-140.72;100.00;53086.91;5120293;27;20492;-68
2023/01/12 11:14:24;;;;;;;12.50;2.17;;;;;;;-140.72;100.00;53109.22;5121950;27;20011;-66
2023/01/12 11:16:53;;;;;;;13.60;2.97;;;;;;;-140.72;100.00;53153.88;5120804;27;20019;-69
2023/01/12 11:19:28;;;;;;;6.10;1.90;;;;;;;-140.72;100.00;53082.84;5126919;27;20115;-70
2023/01/12 11:22:00;;;;;;;7.93;2.03;;;;;;;-140.72;100.00;53084.88;5121988;27;20015;-69
2023/01/12 11:24:46;;;;;;;2.55;0.95;;;;;;;-140.72;100.00;53137.66;5131261;27;20031;-68
2023/01/12 11:27:27;;;;;;;6.45;2.47;;;;;;;-140.72;100.00;53097.06;5115708;27;20058;-68
2023/01/12 11:30:17;;;;;;;12.55;2.15;;;;;;;-140.72;100.00;53107.19;5129442;27;20035;-67
2023/01/12 11:32:58;;;;;;;5.72;1.40;;;;;;;-140.72;100.00;53105.19;5120582;27;20038;-67
2023/01/12 11:35:23;;;;;;;6.03;1.75;;;;;;;-140.72;100.00;53117.34;5119479;27;20053;-68
2023/01/12 11:37:54;;;;;;;7.82;2.15;;;;;;;-140.72;100.00;53066.63;5123966;27;20028;-68
2023/01/12 11:40:27;;;;;;;4.28;1.23;;;;;;;-140.72;100.00;53125.47;5122682;27;20031;-68
2023/01/12 11:46:17;;;;;;;8.68;2.92;;;;;;;-140.72;100.00;53090.97;5132266;27;20080;-68
2023/01/12 11:48:52;;;;;;;6.93;2.83;;;;;;;-140.72;100.00;53125.47;5027553;27;20065;-69
2023/01/12 11:51:18;;;;;;;12.32;1.90;;;;;;;-140.72;100.00;53105.19;5112840;27;20024;-67
2023/01/12 11:53:44;;;;;;;15.10;2.28;;;;;;;-140.72;100.00;53084.88;5120559;27;20052;-68
2023/01/12 11:56:21;;;;;;;11.63;2.42;;;;;;;-140.72;100.00;53105.19;5121798;27;20019;-69
2023/01/12 11:58:55;;;;;;;14.25;3.05;;;;;;;-140.72;100.00;53095.03;5121876;27;20031;-68
2023/01/12 12:01:44;;;;;;;7.97;2.40;;;;;;;-140.72;100.00;53103.16;5114744;27;20026;-68
2023/01/12 12:04:20;;;;;;;13.05;2.00;;;;;;;-140.72;100.00;53131.56;5119483;27;20035;-68